createdAt,value
2023-03-06T00:00:29.888Z,10.54
2023-03-06T00:02:57.953Z,10.46
2023-03-06T00:05:26.250Z,10.43
2023-03-06T00:07:53.929Z,10.45
2023-03-06T00:10:23.140Z,10.66
2023-03-06T00:12:54.833Z,10.90
2023-03-06T00:15:22.712Z,10.71
2023-03-06T00:17:50.308Z,10.90
2023-03-06T00:20:18.000Z,10.81
2023-03-06T00:22:45.611Z,10.83
2023-03-06T00:25:14.511Z,10.75
2023-03-06T00:27:42.572Z,10.71
2023-03-06T00:30:14.826Z,10.64
2023-03-06T00:32:43.273Z,10.72
2023-03-06T00:35:11.805Z,10.66
2023-03-06T00:37:40.326Z,10.62
2023-03-06T00:40:09.799Z,10.53
2023-03-06T00:42:38.122Z,10.47
2023-03-06T00:45:06.317Z,10.58
2023-03-06T00:47:33.932Z,10.61
2023-03-06T00:50:01.554Z,10.61
2023-03-06T00:52:30.576Z,10.56
2023-03-06T00:54:58.141Z,10.72
2023-03-06T00:57:25.884Z,10.65
2023-03-06T00:59:53.453Z,10.65
2023-03-06T01:02:22.101Z,10.62
2023-03-06T01:04:49.660Z,10.58
2023-03-06T01:07:17.335Z,10.64
2023-03-06T01:09:44.915Z,10.66
2023-03-06T01:12:12.431Z,10.70
2023-03-06T01:14:40.017Z,10.69
2023-03-06T01:17:10.501Z,10.76
2023-03-06T01:19:38.061Z,10.70
2023-03-06T01:22:05.642Z,10.88
2023-03-06T01:24:33.140Z,10.79
2023-03-06T01:27:00.662Z,10.70
2023-03-06T01:29:29.119Z,10.71
2023-03-06T01:31:56.724Z,10.68
2023-03-06T01:34:24.507Z,10.72
2023-03-06T01:36:52.031Z,10.66
2023-03-06T01:39:19.551Z,10.66
2023-03-06T01:41:47.151Z,10.69
2023-03-06T01:44:14.740Z,10.69
2023-03-06T01:46:43.213Z,10.60
2023-03-06T01:49:31.169Z,10.59
2023-03-06T01:52:19.817Z,10.48
2023-03-06T01:55:07.549Z,10.53
2023-03-06T01:57:45.548Z,10.59
2023-03-06T02:00:18.106Z,10.67
2023-03-06T02:02:47.678Z,10.84
2023-03-06T02:05:15.339Z,10.77
2023-03-06T02:07:43.337Z,10.79
2023-03-06T02:10:15.263Z,10.72
2023-03-06T02:12:46.828Z,10.72
2023-03-06T02:15:15.988Z,10.65
2023-03-06T02:17:44.950Z,10.75
2023-03-06T02:20:17.554Z,10.63
2023-03-06T02:22:50.497Z,10.53
2023-03-06T02:25:30.505Z,10.64
2023-03-06T02:27:58.174Z,10.62
2023-03-06T02:30:27.131Z,10.68
2023-03-06T02:32:54.917Z,10.64
2023-03-06T02:35:25.503Z,10.61
2023-03-06T02:37:54.435Z,10.69
2023-03-06T02:40:23.126Z,10.71
2023-03-06T02:42:58.213Z,10.67
2023-03-06T02:45:45.360Z,10.57
2023-03-06T02:48:13.955Z,10.52
2023-03-06T02:50:42.115Z,10.59
2023-03-06T02:53:10.997Z,10.44
2023-03-06T02:55:38.795Z,10.50
2023-03-06T02:58:06.928Z,10.57
2023-03-06T03:00:34.592Z,10.59
2023-03-06T03:03:05.214Z,10.63
2023-03-06T03:05:33.044Z,10.67
2023-03-06T03:08:07.633Z,10.64
2023-03-06T03:10:35.451Z,10.57
2023-03-06T03:13:03.063Z,10.70
2023-03-06T03:15:31.070Z,10.53
2023-03-06T03:17:58.591Z,10.61
2023-03-06T03:20:26.176Z,10.60
2023-03-06T03:22:55.260Z,10.67
2023-03-06T03:25:24.238Z,10.59
2023-03-06T03:27:53.334Z,10.55
2023-03-06T03:30:20.989Z,10.60
2023-03-06T03:32:48.924Z,10.56
2023-03-06T03:35:16.536Z,10.65
2023-03-06T03:37:44.242Z,10.58
2023-03-06T03:40:12.318Z,10.62
2023-03-06T03:42:39.829Z,10.70
2023-03-06T03:45:08.271Z,10.66
2023-03-06T03:47:35.872Z,10.66
2023-03-06T03:50:03.970Z,10.64
2023-03-06T03:52:31.504Z,10.70
2023-03-06T03:54:59.313Z,10.72
2023-03-06T03:57:28.208Z,10.65
2023-03-06T03:59:57.210Z,10.67
2023-03-06T04:02:41.224Z,10.56
2023-03-06T04:05:17.245Z,10.70
2023-03-06T04:07:44.976Z,10.68
2023-03-06T04:10:13.095Z,10.72
2023-03-06T04:12:41.682Z,10.61
2023-03-06T04:15:11.790Z,10.51
2023-03-06T04:17:40.247Z,10.52
2023-03-06T04:20:12.272Z,10.59
2023-03-06T04:22:40.245Z,10.63
2023-03-06T04:25:08.645Z,10.68
2023-03-06T04:27:36.506Z,10.63
2023-03-06T04:30:05.855Z,10.77
2023-03-06T04:32:34.568Z,10.62
2023-03-06T04:35:03.095Z,10.61
2023-03-06T04:37:36.007Z,10.54
2023-03-06T04:40:04.529Z,10.58
2023-03-06T04:42:32.320Z,10.43
2023-03-06T04:44:59.837Z,10.43
2023-03-06T04:47:27.487Z,10.43
2023-03-06T04:49:55.169Z,10.59
2023-03-06T04:52:22.818Z,10.45
2023-03-06T04:54:50.373Z,10.58
2023-03-06T04:57:17.988Z,10.48
2023-03-06T04:59:45.535Z,10.50
2023-03-06T05:02:13.325Z,10.56
2023-03-06T05:04:41.089Z,10.46
2023-03-06T05:07:08.757Z,10.64
2023-03-06T05:09:38.327Z,10.60
2023-03-06T05:12:07.226Z,10.48
2023-03-06T05:14:34.874Z,10.41
2023-03-06T05:17:02.577Z,10.41
2023-03-06T05:19:30.327Z,10.45
2023-03-06T05:21:57.978Z,10.30
2023-03-06T05:24:25.624Z,10.12
2023-03-06T05:26:53.753Z,10.10
2023-03-06T05:29:21.565Z,10.08
2023-03-06T05:31:49.277Z,9.96
2023-03-06T05:34:17.334Z,9.91
2023-03-06T05:36:45.087Z,10.10
2023-03-06T05:39:12.819Z,10.10
2023-03-06T05:41:40.508Z,10.21
2023-03-06T05:44:08.532Z,10.04
2023-03-06T05:46:36.199Z,10.02
2023-03-06T05:49:03.903Z,10.02
2023-03-06T05:51:31.759Z,10.02
2023-03-06T05:53:59.501Z,10.07
2023-03-06T05:56:27.256Z,10.06
2023-03-06T05:58:54.915Z,9.99
2023-03-06T06:01:22.644Z,10.01
2023-03-06T06:03:50.429Z,9.95
2023-03-06T06:06:18.221Z,10.08
2023-03-06T06:08:45.936Z,9.91
2023-03-06T06:11:14.150Z,9.78
2023-03-06T06:13:41.964Z,9.92
2023-03-06T06:16:16.194Z,9.88
2023-03-06T06:18:43.914Z,9.87
2023-03-06T06:21:12.603Z,9.66
2023-03-06T06:23:40.696Z,9.71
2023-03-06T06:26:09.078Z,9.73
2023-03-06T06:28:36.845Z,9.92
2023-03-06T06:31:08.503Z,9.79
2023-03-06T06:33:36.337Z,9.89
2023-03-06T06:36:04.213Z,9.93
2023-03-06T06:38:31.863Z,9.98
2023-03-06T06:41:31.056Z,9.98
2023-03-06T06:43:47.624Z,10.18
2023-03-06T06:46:56.130Z,10.19
2023-03-06T06:49:03.327Z,10.19
2023-03-06T06:51:32.914Z,10.34
2023-03-06T06:54:00.741Z,10.40
2023-03-06T06:56:28.466Z,10.43
2023-03-06T06:59:03.912Z,10.46
2023-03-06T07:01:41.804Z,10.40
2023-03-06T07:04:11.689Z,10.60
2023-03-06T07:06:39.516Z,10.55
2023-03-06T07:09:07.175Z,10.46
2023-03-06T07:11:34.899Z,10.63
2023-03-06T07:14:02.608Z,10.55
2023-03-06T07:16:30.315Z,10.41
2023-03-06T07:18:58.008Z,10.50
2023-03-06T07:21:25.634Z,10.34
2023-03-06T07:23:54.470Z,10.49
2023-03-06T07:26:23.494Z,10.39
2023-03-06T07:28:54.066Z,10.30
2023-03-06T07:31:23.472Z,10.18
2023-03-06T07:33:52.021Z,10.19
2023-03-06T07:36:19.916Z,10.34
2023-03-06T07:38:47.926Z,10.34
2023-03-06T07:41:16.797Z,10.50
2023-03-06T07:43:45.054Z,10.67
2023-03-06T07:46:14.502Z,10.76
2023-03-06T07:48:42.380Z,10.93
2023-03-06T07:51:20.784Z,10.97
2023-03-06T07:53:49.583Z,11.01
2023-03-06T07:56:17.627Z,11.11
2023-03-06T07:58:46.293Z,11.21
2023-03-06T08:01:15.344Z,11.06
2023-03-06T08:03:43.321Z,11.31
2023-03-06T08:06:12.761Z,11.27
2023-03-06T08:08:41.297Z,11.32
2023-03-06T08:11:09.416Z,11.29
2023-03-06T08:13:37.638Z,11.29
2023-03-06T08:16:05.765Z,11.29
2023-03-06T08:18:33.802Z,11.45
2023-03-06T08:21:05.413Z,11.41
2023-03-06T08:23:33.697Z,11.36
2023-03-06T08:26:02.692Z,11.46
2023-03-06T08:28:30.398Z,11.59
2023-03-06T08:30:58.756Z,11.63
2023-03-06T08:33:28.614Z,11.72
2023-03-06T08:35:56.363Z,12.00
2023-03-06T08:38:24.052Z,12.09
2023-03-06T08:40:51.757Z,12.13
2023-03-06T08:43:19.444Z,12.15
2023-03-06T08:45:52.498Z,12.45
2023-03-06T08:48:20.222Z,12.65
2023-03-06T08:50:48.093Z,12.73
2023-03-06T08:53:15.868Z,13.01
2023-03-06T08:55:43.655Z,13.13
2023-03-06T08:58:11.354Z,13.11
2023-03-06T09:00:39.431Z,13.41
2023-03-06T09:03:07.109Z,13.42
2023-03-06T09:05:34.750Z,13.69
2023-03-06T09:08:02.369Z,13.72
2023-03-06T09:10:48.510Z,13.75
2023-03-06T09:13:16.193Z,14.02
2023-03-06T09:15:43.830Z,13.96
2023-03-06T09:18:11.429Z,13.62
2023-03-06T09:20:38.953Z,13.46
2023-03-06T09:23:06.542Z,13.23
2023-03-06T09:25:34.173Z,13.44
2023-03-06T09:28:11.434Z,13.54
2023-03-06T09:30:40.541Z,13.99
2023-03-06T09:33:08.417Z,14.44
2023-03-06T09:35:36.088Z,14.44
2023-03-06T09:38:03.646Z,14.40
2023-03-06T09:40:50.166Z,14.54
2023-03-06T09:43:32.714Z,14.90
2023-03-06T09:46:00.408Z,15.42
2023-03-06T09:48:51.975Z,14.92
2023-03-06T09:51:22.632Z,14.56
2023-03-06T09:54:05.305Z,15.00
2023-03-06T09:56:34.462Z,15.48
2023-03-06T09:59:13.735Z,14.87
2023-03-06T10:01:42.643Z,14.85
2023-03-06T10:04:28.841Z,15.19
2023-03-06T10:07:08.870Z,14.53
2023-03-06T10:09:45.989Z,14.60
2023-03-06T10:12:23.007Z,15.27
2023-03-06T10:15:08.969Z,15.22
2023-03-06T10:17:38.294Z,16.23
2023-03-06T10:20:15.591Z,16.61
2023-03-06T10:22:52.532Z,17.01
2023-03-06T10:25:31.925Z,17.33
2023-03-06T10:27:59.474Z,17.37
2023-03-06T10:30:45.716Z,17.62
2023-03-06T10:33:32.185Z,17.72
2023-03-06T10:36:00.084Z,16.89
2023-03-06T10:38:37.550Z,16.28
2023-03-06T10:41:11.202Z,16.68
2023-03-06T10:43:40.169Z,16.92
2023-03-06T10:46:09.215Z,17.09
2023-03-06T10:48:39.413Z,17.01
2023-03-06T10:51:19.329Z,16.98
2023-03-06T10:53:49.830Z,17.24
2023-03-06T10:56:34.144Z,16.82
2023-03-06T10:59:09.374Z,16.87
2023-03-06T11:01:37.390Z,16.37
2023-03-06T11:04:25.675Z,16.69
2023-03-06T11:07:16.433Z,16.39
2023-03-06T11:09:47.972Z,16.15
2023-03-06T11:12:23.376Z,16.28
2023-03-06T11:15:08.360Z,16.74
2023-03-06T11:17:37.483Z,17.04
2023-03-06T11:20:17.100Z,17.39
2023-03-06T11:22:49.860Z,17.97
2023-03-06T11:25:18.869Z,17.95
2023-03-06T11:28:23.721Z,17.52
2023-03-06T11:31:00.425Z,17.95
2023-03-06T11:33:37.473Z,19.35
2023-03-06T11:36:11.226Z,19.17
2023-03-06T11:38:44.720Z,19.43
2023-03-06T11:41:24.200Z,18.35
2023-03-06T11:44:01.002Z,18.59
2023-03-06T11:46:31.568Z,19.37
2023-03-06T11:49:13.640Z,18.36
2023-03-06T11:51:44.784Z,18.21
2023-03-06T11:54:14.428Z,19.16
2023-03-06T11:56:42.030Z,20.22
2023-03-06T11:59:28.232Z,21.64
2023-03-06T12:02:16.759Z,21.93
2023-03-06T12:04:51.174Z,21.46
2023-03-06T12:07:46.218Z,21.06
2023-03-06T12:10:29.452Z,20.76
2023-03-06T12:13:07.958Z,20.24
2023-03-06T12:15:35.563Z,19.87
2023-03-06T12:18:13.504Z,19.57
2023-03-06T12:21:01.981Z,20.45
2023-03-06T12:23:42.802Z,21.19
2023-03-06T12:26:19.728Z,22.17
2023-03-06T12:29:02.527Z,23.52
2023-03-06T12:31:46.126Z,23.67
2023-03-06T12:34:13.827Z,23.74
2023-03-06T12:36:44.703Z,24.20
2023-03-06T12:39:28.781Z,24.23
2023-03-06T12:42:11.436Z,24.55
2023-03-06T12:44:56.502Z,23.87
2023-03-06T12:47:25.525Z,23.85
2023-03-06T12:49:59.412Z,24.65
2023-03-06T12:52:30.779Z,25.17
2023-03-06T12:55:04.775Z,24.96
2023-03-06T12:57:32.518Z,24.94
2023-03-06T13:00:00.172Z,24.68
2023-03-06T13:02:36.999Z,23.88
2023-03-06T13:05:23.412Z,24.42
2023-03-06T13:08:09.316Z,25.86
2023-03-06T13:10:38.839Z,25.72
2023-03-06T13:13:25.298Z,25.90
2023-03-06T13:16:02.367Z,26.30
2023-03-06T13:18:33.068Z,26.77
2023-03-06T13:21:00.835Z,27.64
2023-03-06T13:23:28.512Z,28.85
2023-03-06T13:26:11.188Z,28.96
2023-03-06T13:29:04.991Z,28.34
2023-03-06T13:31:32.791Z,27.99
2023-03-06T13:34:01.806Z,28.43
2023-03-06T13:36:29.732Z,28.80
2023-03-06T13:39:13.085Z,28.30
2023-03-06T13:41:42.542Z,26.98
2023-03-06T13:44:25.431Z,25.86
2023-03-06T13:46:58.872Z,24.81
2023-03-06T13:49:27.012Z,24.09
2023-03-06T13:51:54.905Z,24.47
2023-03-06T13:54:41.511Z,24.47
2023-03-06T13:57:15.165Z,22.75
2023-03-06T14:00:09.337Z,22.62
2023-03-06T14:02:37.576Z,22.08
2023-03-06T14:05:15.159Z,22.27
2023-03-06T14:07:44.592Z,23.29
2023-03-06T14:10:15.210Z,22.73
2023-03-06T14:12:54.109Z,22.73
2023-03-06T14:15:36.412Z,23.15
2023-03-06T14:18:05.793Z,23.48
2023-03-06T14:20:36.997Z,22.98
2023-03-06T14:23:14.480Z,24.44
2023-03-06T14:25:43.743Z,24.92
2023-03-06T14:28:24.703Z,24.03
2023-03-06T14:30:53.324Z,24.18
2023-03-06T14:33:41.329Z,24.81
2023-03-06T14:36:13.030Z,25.30
2023-03-06T14:38:46.458Z,24.94
2023-03-06T14:41:22.771Z,24.41
2023-03-06T14:43:50.641Z,23.17
2023-03-06T14:46:22.753Z,22.33
2023-03-06T14:48:50.534Z,22.48
2023-03-06T14:51:22.588Z,22.66
2023-03-06T14:53:51.310Z,22.36
2023-03-06T14:56:21.545Z,21.99
2023-03-06T14:58:49.246Z,21.09
2023-03-06T15:01:21.838Z,20.54
2023-03-06T15:03:51.414Z,19.79
2023-03-06T15:06:45.511Z,19.49
2023-03-06T15:09:24.442Z,19.43
2023-03-06T15:12:02.451Z,19.08
2023-03-06T15:14:36.505Z,18.79
2023-03-06T15:17:19.602Z,18.97
2023-03-06T15:19:48.810Z,18.31
2023-03-06T15:22:38.010Z,18.24
2023-03-06T15:25:19.985Z,18.39
2023-03-06T15:27:57.680Z,18.79
2023-03-06T15:30:25.544Z,18.72
2023-03-06T15:33:08.423Z,18.13
2023-03-06T15:35:38.213Z,18.07
2023-03-06T15:38:23.073Z,17.98
2023-03-06T15:40:54.877Z,17.95
2023-03-06T15:43:22.989Z,17.99
2023-03-06T15:45:59.613Z,17.72
2023-03-06T15:48:27.853Z,17.75
2023-03-06T15:50:55.473Z,17.80
2023-03-06T15:53:23.307Z,18.20
2023-03-06T15:55:52.336Z,18.18
2023-03-06T15:58:24.047Z,18.30
2023-03-06T16:00:51.713Z,18.30
2023-03-06T16:03:19.607Z,18.45
2023-03-06T16:05:47.488Z,17.92
2023-03-06T16:08:16.393Z,17.81
2023-03-06T16:10:44.893Z,17.41
2023-03-06T16:13:28.963Z,17.02
2023-03-06T16:15:56.794Z,16.93
2023-03-06T16:18:24.487Z,16.99
2023-03-06T16:20:52.318Z,16.89
2023-03-06T16:23:20.141Z,16.81
2023-03-06T16:25:49.093Z,16.58
2023-03-06T16:28:17.077Z,16.52
2023-03-06T16:30:45.168Z,16.33
2023-03-06T16:33:13.415Z,16.44
2023-03-06T16:35:41.510Z,16.55
2023-03-06T16:38:10.277Z,16.38
2023-03-06T16:40:41.488Z,16.20
2023-03-06T16:43:10.758Z,16.08
2023-03-06T16:45:40.687Z,16.02
2023-03-06T16:48:13.763Z,15.87
2023-03-06T16:50:41.613Z,15.76
2023-03-06T16:53:09.307Z,15.63
2023-03-06T16:55:36.970Z,15.72
2023-03-06T16:58:04.737Z,15.71
2023-03-06T17:00:33.551Z,15.61
2023-03-06T17:03:02.860Z,15.59
2023-03-06T17:05:33.412Z,15.44
2023-03-06T17:08:01.148Z,15.54
2023-03-06T17:10:29.392Z,15.51
2023-03-06T17:12:57.486Z,15.40
2023-03-06T17:15:25.126Z,15.37
2023-03-06T17:17:53.524Z,15.29
2023-03-06T17:20:21.293Z,15.33
2023-03-06T17:22:49.070Z,15.14
2023-03-06T17:25:16.780Z,15.15
2023-03-06T17:27:44.501Z,15.12
2023-03-06T17:30:12.510Z,15.00
2023-03-06T17:32:41.161Z,14.96
2023-03-06T17:35:09.458Z,14.66
2023-03-06T17:37:37.216Z,14.64
2023-03-06T17:40:07.279Z,14.70
2023-03-06T17:42:35.316Z,14.59
2023-03-06T17:45:03.086Z,14.66
2023-03-06T17:47:31.011Z,14.64
2023-03-06T17:49:58.762Z,14.53
2023-03-06T17:52:26.516Z,14.54
2023-03-06T17:54:54.261Z,14.63
2023-03-06T17:57:21.919Z,14.64
2023-03-06T17:59:49.619Z,14.56
2023-03-06T18:02:17.868Z,14.19
2023-03-06T18:04:45.590Z,14.24
2023-03-06T18:07:13.359Z,14.20
2023-03-06T18:09:42.197Z,14.48
2023-03-06T18:12:09.958Z,14.45
2023-03-06T18:14:37.680Z,14.08
2023-03-06T18:17:05.430Z,13.93
2023-03-06T18:19:33.120Z,13.86
2023-03-06T18:22:00.875Z,13.82
2023-03-06T18:24:28.617Z,13.71
2023-03-06T18:26:56.220Z,13.90
2023-03-06T18:29:23.860Z,13.94
2023-03-06T18:31:51.662Z,13.77
2023-03-06T18:34:19.417Z,14.14
2023-03-06T18:36:51.854Z,14.04
2023-03-06T18:39:21.583Z,14.05
2023-03-06T18:41:49.605Z,14.10
2023-03-06T18:44:17.798Z,14.24
2023-03-06T18:46:45.593Z,13.95
2023-03-06T18:49:13.470Z,13.98
2023-03-06T18:51:41.174Z,13.86
2023-03-06T18:54:10.333Z,13.79
2023-03-06T18:56:39.679Z,13.92
2023-03-06T18:59:07.664Z,14.39
2023-03-06T19:01:35.800Z,14.51
2023-03-06T19:04:04.015Z,14.61
2023-03-06T19:06:32.159Z,14.60
2023-03-06T19:09:01.916Z,14.21
2023-03-06T19:11:30.074Z,13.90
2023-03-06T19:13:58.277Z,13.79
2023-03-06T19:16:27.218Z,13.65
2023-03-06T19:18:58.015Z,13.61
2023-03-06T19:21:26.918Z,13.59
2023-03-06T19:23:55.259Z,13.81
2023-03-06T19:26:23.329Z,14.18
2023-03-06T19:28:51.487Z,14.34
2023-03-06T19:31:25.192Z,14.04
2023-03-06T19:33:53.789Z,13.73
2023-03-06T19:36:24.023Z,13.52
2023-03-06T19:39:02.275Z,13.42
2023-03-06T19:41:29.902Z,13.40
2023-03-06T19:43:59.742Z,13.38
2023-03-06T19:46:27.589Z,13.49
2023-03-06T19:48:56.315Z,13.54
2023-03-06T19:51:24.235Z,13.48
2023-03-06T19:53:52.281Z,13.44
2023-03-06T19:56:21.814Z,13.33
2023-03-06T19:58:49.473Z,13.30
2023-03-06T20:01:18.605Z,13.30
2023-03-06T20:03:46.576Z,13.28
2023-03-06T20:06:15.686Z,13.34
2023-03-06T20:08:43.606Z,13.35
2023-03-06T20:11:18.760Z,13.34
2023-03-06T20:13:48.042Z,13.23
2023-03-06T20:16:16.552Z,13.28
2023-03-06T20:18:44.281Z,13.25
2023-03-06T20:21:12.312Z,13.17
2023-03-06T20:23:39.900Z,13.08
2023-03-06T20:26:15.076Z,13.02
2023-03-06T20:28:42.985Z,12.81
2023-03-06T20:31:11.869Z,12.87
2023-03-06T20:33:39.643Z,12.92
2023-03-06T20:36:14.783Z,12.77
2023-03-06T20:38:42.732Z,12.68
2023-03-06T20:41:14.722Z,12.69
2023-03-06T20:43:42.391Z,13.08
2023-03-06T20:46:10.490Z,13.09
2023-03-06T20:48:38.359Z,12.72
2023-03-06T20:51:28.058Z,12.81
2023-03-06T20:53:56.047Z,12.61
2023-03-06T20:56:25.832Z,12.64
2023-03-06T20:58:53.532Z,12.70
2023-03-06T21:01:25.289Z,12.64
2023-03-06T21:03:53.268Z,12.62
2023-03-06T21:06:21.089Z,12.56
2023-03-06T21:08:48.732Z,12.55
2023-03-06T21:11:17.041Z,12.57
2023-03-06T21:13:44.688Z,12.46
2023-03-06T21:16:17.524Z,12.49
2023-03-06T21:18:45.507Z,12.48
2023-03-06T21:21:19.499Z,12.34
2023-03-06T21:23:48.015Z,12.47
2023-03-06T21:26:19.519Z,12.44
2023-03-06T21:28:47.573Z,12.41
2023-03-06T21:31:17.091Z,12.29
2023-03-06T21:33:45.356Z,12.29
2023-03-06T21:36:13.060Z,12.42
2023-03-06T21:38:40.740Z,12.37
2023-03-06T21:41:09.835Z,12.12
2023-03-06T21:43:37.502Z,12.26
2023-03-06T21:46:05.299Z,12.12
2023-03-06T21:48:33.416Z,12.06
2023-03-06T21:51:16.149Z,12.16
2023-03-06T21:53:44.449Z,11.86
2023-03-06T21:56:13.250Z,11.77
2023-03-06T21:58:40.986Z,11.78
2023-03-06T22:01:12.911Z,11.99
2023-03-06T22:03:40.502Z,12.07
2023-03-06T22:06:12.547Z,12.08
2023-03-06T22:08:40.608Z,11.82
2023-03-06T22:11:09.870Z,11.75
2023-03-06T22:13:37.458Z,11.71
2023-03-06T22:16:05.565Z,11.68
2023-03-06T22:18:33.720Z,11.74
2023-03-06T22:21:05.735Z,11.74
2023-03-06T22:23:33.309Z,11.53
2023-03-06T22:26:05.353Z,11.34
2023-03-06T22:28:33.045Z,11.38
2023-03-06T22:31:04.920Z,11.35
2023-03-06T22:33:32.675Z,11.48
2023-03-06T22:36:02.931Z,11.63
2023-03-06T22:38:30.633Z,11.75
2023-03-06T22:40:58.562Z,11.72
2023-03-06T22:43:26.302Z,11.62
2023-03-06T22:48:57.957Z,11.20
2023-03-06T22:51:26.576Z,11.06
2023-03-06T22:53:54.224Z,11.13
2023-03-06T22:56:22.350Z,10.97
2023-03-06T22:58:50.141Z,10.85
2023-03-06T23:01:19.266Z,10.73
2023-03-06T23:03:51.176Z,10.79
2023-03-06T23:06:18.870Z,10.79
2023-03-06T23:09:06.822Z,10.72
2023-03-06T23:11:53.040Z,10.98
2023-03-06T23:14:39.711Z,10.73
2023-03-06T23:17:26.173Z,10.69
2023-03-06T23:20:13.753Z,10.67
2023-03-06T23:23:00.350Z,11.06
2023-03-06T23:25:44.096Z,11.11
2023-03-06T23:28:12.410Z,11.08
2023-03-06T23:30:40.484Z,11.12
2023-03-06T23:33:08.730Z,11.03
2023-03-06T23:35:38.061Z,10.90
2023-03-06T23:38:05.870Z,10.92
2023-03-06T23:40:34.911Z,10.87
2023-03-06T23:43:03.294Z,10.88
2023-03-06T23:45:31.564Z,10.70
2023-03-06T23:47:59.441Z,10.70
2023-03-06T23:50:27.207Z,10.53
2023-03-06T23:52:55.355Z,10.40
2023-03-06T23:55:23.191Z,10.68
2023-03-06T23:57:50.952Z,10.67
